Time;durP1;ratioP1;P1;durP2;ratioP2;P2;SDS_P1;SDS_P2;PMS_P1;PMS_P2;Temp;Humidity;BMP_temperature;BMP_pressure;BME280_temperature;BME280_humidity;BME280_pressure;Samples;Min_cycle;Max_cycle;Signal;HPM_P1;HPM_P2
2023/07/29 07:40:55;;;;;;;2.80;1.45;;;;;;;18.01;100.00;96157.19;2083606;28;20563;-74
2023/07/29 07:41:57;;;;;;;2.00;1.30;;;;;;;18.10;100.00;96155.59;2082728;28;20732;-74
2023/07/29 07:42:59;;;;;;;4.55;1.63;;;;;;;18.32;100.00;96159.09;2082858;28;20200;-74
2023/07/29 07:44:00;;;;;;;2.63;1.40;;;;;;;18.63;100.00;96149.41;2076629;28;20230;-75
2023/07/29 07:45:02;;;;;;;8.10;1.90;;;;;;;19.02;100.00;96157.56;2073815;28;20288;-76
2023/07/29 07:46:03;;;;;;;3.63;1.40;;;;;;;19.16;98.46;96150.22;2074937;28;20255;-76
2023/07/29 07:47:05;;;;;;;3.13;1.50;;;;;;;19.44;98.37;96153.09;2078112;28;20189;-76
2023/07/29 07:48:09;;;;;;;2.05;1.20;;;;;;;19.61;96.38;96143.66;2078292;28;20197;-76
2023/07/29 07:49:12;;;;;;;3.72;1.85;;;;;;;19.66;97.02;96147.56;2070520;28;20229;-76
2023/07/29 07:50:14;;;;;;;2.80;1.55;;;;;;;19.80;95.95;96145.50;2073676;28;20868;-76
2023/07/29 07:51:15;;;;;;;2.70;1.52;;;;;;;19.79;93.72;96149.13;2073269;28;20233;-77
2023/07/29 07:52:17;;;;;;;3.55;1.40;;;;;;;19.90;95.19;96146.38;2072366;28;20712;-76
2023/07/29 07:53:19;;;;;;;2.22;1.33;;;;;;;20.04;95.23;96142.47;2075832;28;20289;-77
2023/07/29 07:54:21;;;;;;;2.22;1.17;;;;;;;19.80;95.12;96145.50;2075003;28;20876;-76
2023/07/29 07:55:22;;;;;;;3.72;1.52;;;;;;;19.95;95.17;96136.19;2074702;28;20235;-77
2023/07/29 07:56:24;;;;;;;3.53;1.48;;;;;;;20.39;94.81;96149.84;2074182;28;20280;-76
2023/07/29 07:57:25;;;;;;;3.17;1.40;;;;;;;20.43;93.24;96146.91;2075147;28;20189;-72
2023/07/29 07:58:27;;;;;;;4.25;2.50;;;;;;;20.25;92.34;96150.25;2074173;28;20277;-70
2023/07/29 07:59:28;;;;;;;32.50;11.50;;;;;;;19.97;94.04;96147.50;2076106;28;20853;-73
2023/07/29 08:00:29;;;;;;;3.72;1.88;;;;;;;19.90;96.13;96155.16;2076497;28;20712;-73
2023/07/29 08:01:36;;;;;;;3.45;1.75;;;;;;;20.06;95.08;96146.66;2074013;28;20693;-72
2023/07/29 08:02:37;;;;;;;3.00;1.35;;;;;;;20.35;94.71;96156.41;2075150;28;20197;-72
2023/07/29 08:03:39;;;;;;;2.67;1.67;;;;;;;20.47;93.79;96157.09;2073663;28;20202;-72
2023/07/29 08:04:41;;;;;;;3.17;1.50;;;;;;;20.21;93.74;96160.34;2073879;28;20198;-71
2023/07/29 08:05:42;;;;;;;2.97;1.38;;;;;;;20.03;94.27;96160.16;2074491;28;20190;-68
2023/07/29 08:06:44;;;;;;;3.72;1.38;;;;;;;19.85;94.32;96165.31;2074273;28;20224;-68
2023/07/29 08:07:45;;;;;;;4.38;1.48;;;;;;;19.83;95.77;96174.38;2073579;28;20201;-70
2023/07/29 08:08:47;;;;;;;2.90;1.20;;;;;;;19.56;95.39;96167.91;2072658;28;20259;-69
2023/07/29 08:09:48;;;;;;;3.85;1.63;;;;;;;19.48;95.08;96173.88;2073415;28;20625;-72
2023/07/29 08:10:50;;;;;;;2.58;1.73;;;;;;;19.47;97.59;96179.31;2075093;28;20192;-68
2023/07/29 08:11:51;;;;;;;3.20;1.33;;;;;;;19.36;97.59;96172.31;2073952;28;20205;-68
2023/07/29 08:12:53;;;;;;;3.28;1.60;;;;;;;19.20;98.07;96178.94;2074825;28;20291;-71
2023/07/29 08:13:54;;;;;;;2.00;1.40;;;;;;;19.18;99.25;96178.22;2073401;28;20225;-70
2023/07/29 08:14:56;;;;;;;2.42;1.35;;;;;;;19.09;100.00;96184.31;2070621;28;20198;-70
2023/07/29 08:15:57;;;;;;;4.90;1.80;;;;;;;19.00;99.49;96188.59;2071221;28;20662;-71
2023/07/29 08:18:55;;;;;;;5.82;1.95;;;;;;;18.95;99.72;96180.22;2105144;27;20561;-68
2023/07/29 08:19:57;;;;;;;2.25;1.40;;;;;;;19.12;99.78;96180.56;2098675;28;20256;-68
2023/07/29 08:21:02;;;;;;;4.22;1.58;;;;;;;19.09;99.21;96179.84;2097284;28;20199;-68
2023/07/29 08:22:04;;;;;;;2.20;1.40;;;;;;;19.23;99.22;96183.13;2097498;28;20199;-68
2023/07/29 08:23:05;;;;;;;6.13;1.55;;;;;;;19.23;97.89;96189.25;2095536;28;20200;-68
2023/07/29 08:24:07;;;;;;;2.45;1.63;;;;;;;19.27;98.69;96184.53;2092865;28;20226;-69
2023/07/29 08:25:09;;;;;;;3.28;1.30;;;;;;;19.46;98.88;96177.63;2099580;28;21017;-69
2023/07/29 08:26:10;;;;;;;3.47;1.55;;;;;;;19.46;97.55;96177.63;2098814;28;20226;-69
2023/07/29 08:27:12;;;;;;;2.65;1.20;;;;;;;19.53;96.92;96176.13;2098306;28;20234;-68
2023/07/29 08:28:13;;;;;;;3.42;1.52;;;;;;;19.67;96.66;96188.16;2098294;28;20203;-68
2023/07/29 08:29:15;;;;;;;5.38;1.30;;;;;;;19.84;96.93;96184.84;2097352;28;20234;-69
2023/07/29 08:30:17;;;;;;;5.47;1.45;;;;;;;19.85;94.15;96191.81;2095411;28;20222;-69
2023/07/29 08:31:19;;;;;;;6.30;1.40;;;;;;;19.95;93.29;96185.69;2096215;28;20265;-69
2023/07/29 08:32:21;;;;;;;1.50;1.00;;;;;;;19.98;94.03;96182.78;2099951;28;20209;-69
2023/07/29 08:33:23;;;;;;;3.40;1.35;;;;;;;20.09;92.51;96187.09;2099432;28;20708;-69
2023/07/29 08:34:24;;;;;;;2.10;1.20;;;;;;;20.30;91.92;96187.81;2090051;28;20570;-68
2023/07/29 08:35:26;;;;;;;1.80;1.20;;;;;;;20.47;91.92;96185.44;2091920;28;20203;-69
2023/07/29 08:36:27;;;;;;;3.65;1.20;;;;;;;20.52;93.25;96188.50;2089700;28;20208;-69
2023/07/29 08:37:29;;;;;;;4.35;1.50;;;;;;;20.54;91.41;96187.38;2091393;28;20195;-69
2023/07/29 08:38:30;;;;;;;1.50;1.00;;;;;;;20.63;91.64;96184.84;2090500;28;20237;-69
2023/07/29 08:39:32;;;;;;;2.15;1.30;;;;;;;20.60;91.21;96185.13;2090185;28;20200;-69
2023/07/29 08:40:36;;;;;;;2.75;1.15;;;;;;;20.52;91.73;96186.66;2090921;28;20257;-69
2023/07/29 08:41:45;;;;;;;2.85;1.48;;;;;;;20.43;91.05;96176.91;2091195;28;20207;-69
2023/07/29 08:42:48;;;;;;;4.25;1.48;;;;;;;20.46;92.08;96181.09;2099046;28;20191;-69
2023/07/29 08:43:55;;;;;;;2.53;1.33;;;;;;;20.59;90.79;96183.44;2096586;28;20219;-69
2023/07/29 08:45:06;;;;;;;2.25;1.20;;;;;;;20.37;89.64;96188.91;2089478;28;20193;-69
2023/07/29 08:46:07;;;;;;;2.20;1.40;;;;;;;20.48;90.36;96187.09;2091153;28;20189;-69
2023/07/29 08:47:09;;;;;;;1.92;1.20;;;;;;;20.47;89.97;96183.59;2090702;28;20216;-69
2023/07/29 08:48:14;;;;;;;4.18;1.27;;;;;;;20.51;90.85;96195.59;2090258;28;20234;-69
2023/07/29 08:49:20;;;;;;;1.65;1.00;;;;;;;20.57;90.42;96188.91;2090948;28;20318;-69
2023/07/29 08:50:24;;;;;;;2.03;1.10;;;;;;;20.57;89.85;96191.56;2087178;28;20228;-68
2023/07/29 08:51:27;;;;;;;3.25;1.02;;;;;;;20.45;89.90;96195.34;2087344;28;20245;-69
2023/07/29 08:52:32;;;;;;;1.80;1.25;;;;;;;20.53;90.59;96183.03;2090693;28;20644;-68
2023/07/29 08:53:34;;;;;;;3.80;1.60;;;;;;;20.56;90.06;96187.22;2090114;28;20203;-69
2023/07/29 08:54:35;;;;;;;8.18;1.50;;;;;;;20.57;91.13;96180.94;2090049;28;20192;-68
2023/07/29 08:55:38;;;;;;;3.88;0.95;;;;;;;20.53;90.42;96182.19;2090341;28;20196;-69
2023/07/29 08:56:43;;;;;;;2.95;1.30;;;;;;;20.59;89.30;96176.31;2091371;28;20199;-69
2023/07/29 08:57:45;;;;;;;2.25;1.10;;;;;;;20.59;87.93;96176.31;2091103;28;20821;-69
2023/07/29 08:58:47;;;;;;;2.72;1.13;;;;;;;20.71;88.66;96163.78;2085995;28;20236;-68
2023/07/29 08:59:48;;;;;;;2.17;1.35;;;;;;;20.68;87.50;96172.84;2087659;28;20196;-68
2023/07/29 09:00:50;;;;;;;3.80;1.20;;;;;;;20.82;87.75;96174.22;2090638;28;20597;-68
2023/07/29 09:01:56;;;;;;;2.15;0.90;;;;;;;20.80;86.70;96170.03;2091024;28;20197;-68
2023/07/29 09:03:02;;;;;;;2.25;1.30;;;;;;;21.08;87.17;96178.88;2090584;28;20228;-68
2023/07/29 09:04:04;;;;;;;3.40;1.10;;;;;;;21.31;85.89;96176.69;2089337;28;20609;-67
2023/07/29 09:05:06;;;;;;;8.73;1.20;;;;;;;21.50;84.69;96164.31;2088652;28;20203;-67
2023/07/29 09:06:08;;;;;;;3.67;1.17;;;;;;;21.75;82.93;96159.28;2088372;28;20262;-67
2023/07/29 09:07:10;;;;;;;3.30;1.45;;;;;;;21.56;83.95;96162.88;2089963;28;20262;-67
2023/07/29 09:08:11;;;;;;;2.30;1.40;;;;;;;21.93;85.02;96156.63;2088656;28;20196;-66
2023/07/29 09:09:13;;;;;;;2.35;1.10;;;;;;;22.04;83.27;96158.25;2086916;28;20235;-67
2023/07/29 09:10:15;;;;;;;4.25;1.33;;;;;;;22.13;81.72;96157.31;2086940;28;20298;-68
2023/07/29 09:11:17;;;;;;;1.90;1.00;;;;;;;22.42;80.97;96159.75;2087864;28;20199;-69
2023/07/29 09:12:18;;;;;;;1.98;1.15;;;;;;;22.39;83.12;96157.41;2086830;28;20204;-69
2023/07/29 09:13:21;;;;;;;2.40;1.40;;;;;;;22.44;81.00;96162.28;2089059;28;20222;-69
2023/07/29 09:14:23;;;;;;;2.78;1.35;;;;;;;22.54;79.15;96162.16;2090507;28;20655;-69
2023/07/29 09:15:29;;;;;;;3.25;1.20;;;;;;;22.57;78.23;96157.38;2089888;28;20206;-69
2023/07/29 09:16:32;;;;;;;4.38;1.30;;;;;;;22.29;79.46;96153.97;2092670;28;20250;-69
2023/07/29 09:17:34;;;;;;;4.60;1.35;;;;;;;22.13;80.12;96157.31;2089557;28;20204;-69
2023/07/29 09:18:35;;;;;;;2.45;1.20;;;;;;;21.91;79.22;96156.78;2089071;28;20953;-69
2023/07/29 09:19:37;;;;;;;3.53;1.40;;;;;;;21.92;80.75;96154.97;2091318;28;20215;-69
2023/07/29 09:20:39;;;;;;;2.55;1.10;;;;;;;21.75;78.98;96156.63;2089903;28;20299;-69
2023/07/29 09:21:41;;;;;;;2.85;1.33;;;;;;;21.92;79.61;96153.16;2089716;28;20249;-69
2023/07/29 09:22:43;;;;;;;2.72;1.20;;;;;;;21.94;79.82;96155.66;2088910;28;20666;-69
2023/07/29 09:23:45;;;;;;;3.17;1.50;;;;;;;21.77;80.32;96149.34;2088606;28;20220;-69
2023/07/29 09:24:47;;;;;;;8.15;1.20;;;;;;;21.73;80.19;96153.28;2089366;28;20211;-69
2023/07/29 09:25:49;;;;;;;4.93;1.50;;;;;;;21.52;80.50;96144.56;2086454;28;20200;-69
2023/07/29 09:26:51;;;;;;;2.88;1.40;;;;;;;21.54;80.71;96147.06;2087224;28;20250;-69
2023/07/29 09:27:52;;;;;;;2.85;1.23;;;;;;;21.53;82.78;96148.06;2090347;28;20247;-68
2023/07/29 09:28:58;;;;;;;3.10;1.30;;;;;;;21.63;81.91;96156.00;2088849;28;20216;-69
2023/07/29 09:30:00;;;;;;;2.30;1.05;;;;;;;21.58;82.13;96159.09;2086849;28;20242;-69
2023/07/29 09:31:03;;;;;;;1.85;1.30;;;;;;;21.43;80.42;96164.03;2085645;28;20208;-69
2023/07/29 09:32:21;;;;;;;2.85;1.02;;;;;;;21.11;79.98;96170.63;2085567;28;20197;-69
2023/07/29 09:33:25;;;;;;;2.75;1.08;;;;;;;21.01;79.14;96168.03;2084490;28;21109;-69
2023/07/29 09:34:29;;;;;;;4.05;1.33;;;;;;;20.95;80.22;96168.59;2083936;28;20659;-68
2023/07/29 09:35:33;;;;;;;2.40;1.27;;;;;;;20.86;80.91;96172.94;2084512;28;20193;-68
2023/07/29 09:36:35;;;;;;;3.85;1.35;;;;;;;20.84;81.91;96166.13;2083681;28;20251;-68
2023/07/29 09:37:39;;;;;;;2.00;1.35;;;;;;;20.88;82.00;96167.50;2083289;28;20201;-68
2023/07/29 09:38:40;;;;;;;2.55;1.67;;;;;;;20.83;83.06;96177.69;2080464;28;20749;-69
2023/07/29 09:39:44;;;;;;;3.08;1.70;;;;;;;20.91;83.37;96169.03;2081826;28;20859;-68
2023/07/29 09:40:46;;;;;;;4.18;1.58;;;;;;;20.87;85.79;96176.44;2085897;28;20208;-68
2023/07/29 09:41:49;;;;;;;2.80;1.50;;;;;;;20.84;84.08;96180.22;2086454;28;20201;-68
2023/07/29 09:42:54;;;;;;;6.18;1.75;;;;;;;20.77;81.13;96178.28;2083609;28;20259;-69
2023/07/29 09:43:57;;;;;;;3.15;1.85;;;;;;;20.73;81.78;96179.56;2084127;28;20255;-68
2023/07/29 09:44:59;;;;;;;2.97;1.48;;;;;;;20.74;81.82;96181.22;2085431;28;20262;-68
2023/07/29 09:46:06;;;;;;;2.20;1.50;;;;;;;20.74;84.10;96181.22;2086861;28;20192;-66
2023/07/29 09:47:08;;;;;;;2.35;1.30;;;;;;;20.91;83.21;96177.81;2086731;28;20197;-67
2023/07/29 09:48:10;;;;;;;2.00;1.40;;;;;;;21.08;82.73;96173.56;2084935;28;20200;-67
2023/07/29 09:49:12;;;;;;;3.88;1.40;;;;;;;21.02;83.36;96177.63;2080256;28;20225;-67
2023/07/29 09:50:14;;;;;;;3.05;1.65;;;;;;;20.91;82.88;96184.94;2084089;28;20659;-67
2023/07/29 09:51:15;;;;;;;2.38;1.45;;;;;;;20.82;81.10;96186.63;2084795;28;20192;-67
2023/07/29 09:52:18;;;;;;;3.10;1.40;;;;;;;20.74;81.04;96183.88;2080513;28;20284;-68
2023/07/29 09:53:20;;;;;;;1.90;1.02;;;;;;;20.60;82.78;96188.59;2081479;28;20203;-67
2023/07/29 09:54:22;;;;;;;4.18;1.15;;;;;;;20.69;83.60;96185.09;2080045;28;20580;-67
2023/07/29 09:55:25;;;;;;;3.00;1.30;;;;;;;20.77;83.96;96188.88;2082217;28;20201;-67
2023/07/29 09:56:27;;;;;;;3.95;1.13;;;;;;;20.67;86.93;96199.47;2083317;28;20201;-68
2023/07/29 09:57:29;;;;;;;3.28;1.30;;;;;;;20.68;88.74;96194.06;2085280;28;20200;-68
2023/07/29 09:58:32;;;;;;;1.88;1.08;;;;;;;20.44;89.76;96191.00;2085320;28;20231;-68
2023/07/29 09:59:34;;;;;;;1.90;0.90;;;;;;;20.32;91.33;96185.84;2083571;28;20388;-68
2023/07/29 10:00:38;;;;;;;3.20;1.23;;;;;;;20.32;90.92;96188.50;2080780;28;20197;-68
2023/07/29 10:01:39;;;;;;;1.80;1.02;;;;;;;20.33;90.35;96190.19;2084914;28;20349;-68
2023/07/29 10:02:43;;;;;;;2.20;1.05;;;;;;;20.21;91.19;96185.97;2083881;28;20237;-68
2023/07/29 10:03:45;;;;;;;2.33;0.85;;;;;;;20.26;91.11;96180.28;2080237;28;20228;-68
2023/07/29 10:04:47;;;;;;;5.53;1.00;;;;;;;20.32;90.12;96183.19;2084345;28;20209;-68
2023/07/29 10:05:49;;;;;;;1.55;0.98;;;;;;;20.35;89.43;96187.38;2084552;28;20287;-68
2023/07/29 10:06:52;;;;;;;1.80;1.10;;;;;;;20.37;89.70;96194.22;2085912;28;20204;-68
2023/07/29 10:07:53;;;;;;;2.25;1.00;;;;;;;20.44;89.55;96189.16;2086246;28;20769;-68
2023/07/29 10:08:56;;;;;;;1.63;0.95;;;;;;;20.49;90.02;96181.66;2080535;28;20225;-68
2023/07/29 10:09:57;;;;;;;1.83;0.95;;;;;;;20.52;90.32;96191.16;2082167;28;20220;-68
2023/07/29 10:11:00;;;;;;;2.22;1.25;;;;;;;20.51;90.81;96192.94;2081029;28;20185;-67
2023/07/29 10:12:02;;;;;;;6.30;0.95;;;;;;;20.56;89.99;96187.22;2081471;28;20634;-68
2023/07/29 10:13:04;;;;;;;4.57;1.25;;;;;;;20.46;89.61;96186.41;2082966;28;20683;-68
2023/07/29 10:14:06;;;;;;;3.70;1.00;;;;;;;20.64;90.11;96190.00;2082982;28;20308;-68
2023/07/29 10:15:10;;;;;;;2.50;1.30;;;;;;;20.48;90.29;96195.03;2084541;28;20203;-65
2023/07/29 10:16:12;;;;;;;2.80;1.20;;;;;;;20.49;91.19;96191.41;2085080;28;20196;-65
2023/07/29 10:17:15;;;;;;;2.20;1.10;;;;;;;20.45;89.91;96193.50;2085454;28;20196;-65
2023/07/29 10:18:18;;;;;;;2.22;0.90;;;;;;;20.31;89.45;96193.94;2084525;28;20294;-65
2023/07/29 10:19:21;;;;;;;4.15;1.27;;;;;;;20.37;92.04;96190.75;2083739;28;20243;-65
2023/07/29 10:20:23;;;;;;;1.90;1.20;;;;;;;20.28;90.41;96205.66;2084421;28;20637;-65
2023/07/29 10:21:25;;;;;;;1.98;1.17;;;;;;;20.29;89.54;96196.75;2083185;28;20250;-65
2023/07/29 10:22:32;;;;;;;2.25;1.38;;;;;;;20.30;90.11;96198.41;2083144;28;20212;-65
2023/07/29 10:23:38;;;;;;;3.67;1.00;;;;;;;20.46;90.39;96204.97;2082684;28;20201;-65
2023/07/29 10:24:43;;;;;;;2.53;1.13;;;;;;;20.71;90.30;96207.06;2080886;28;20220;-65
2023/07/29 10:25:49;;;;;;;2.17;1.00;;;;;;;20.67;88.35;96194.16;2082213;28;20193;-65
2023/07/29 10:26:51;;;;;;;1.48;0.90;;;;;;;20.73;87.63;96203.44;2084283;28;20258;-65
2023/07/29 10:28:00;;;;;;;2.67;1.15;;;;;;;20.95;88.25;96204.91;2085564;28;20197;-66
2023/07/29 10:29:08;;;;;;;2.47;1.02;;;;;;;21.29;85.53;96199.91;2084509;28;20750;-65
2023/07/29 10:30:13;;;;;;;3.78;1.00;;;;;;;21.46;84.66;96211.56;2084365;28;20197;-65
2023/07/29 10:31:17;;;;;;;4.40;1.33;;;;;;;21.36;84.89;96200.97;2080939;28;20804;-65
2023/07/29 10:32:24;;;;;;;4.28;1.25;;;;;;;21.60;85.49;96201.44;2082246;28;20201;-65
2023/07/29 10:33:26;;;;;;;2.00;1.40;;;;;;;22.16;83.69;96200.38;2080040;28;20201;-65
2023/07/29 10:34:29;;;;;;;1.45;0.90;;;;;;;22.34;81.99;96204.88;2084491;28;20201;-65
2023/07/29 10:35:35;;;;;;;1.50;1.00;;;;;;;22.31;82.96;96203.34;2084834;28;20837;-65
2023/07/29 10:36:37;;;;;;;2.55;1.35;;;;;;;22.20;81.27;96202.75;2083801;28;20637;-65
2023/07/29 10:37:40;;;;;;;2.15;1.10;;;;;;;22.76;81.99;96204.22;2084165;28;20208;-66
2023/07/29 10:38:41;;;;;;;2.17;1.10;;;;;;;23.24;79.28;96199.41;2082608;28;20280;-65
2023/07/29 10:39:53;;;;;;;4.50;1.10;;;;;;;23.58;81.33;96189.72;2085316;28;20209;-66
2023/07/29 10:40:56;;;;;;;8.95;1.23;;;;;;;23.34;80.12;96185.97;2084410;28;20201;-65
2023/07/29 10:42:01;;;;;;;3.13;1.30;;;;;;;23.18;79.75;96183.25;2084937;28;20220;-65
2023/07/29 10:43:09;;;;;;;3.88;1.23;;;;;;;23.14;79.03;96183.50;2087253;28;20270;-66
2023/07/29 10:44:51;;;;;;;3.25;1.17;;;;;;;22.88;76.73;96183.53;2087144;28;20314;-66
2023/07/29 10:45:55;;;;;;;3.03;1.42;;;;;;;23.20;76.44;96181.22;2085299;28;20188;-66
2023/07/29 10:47:18;;;;;;;6.32;1.33;;;;;;;23.21;75.24;96174.91;2083740;28;20207;-65
2023/07/29 10:48:37;;;;;;;2.25;1.00;;;;;;;23.03;74.48;96173.13;2081677;28;20269;-66
2023/07/29 10:49:47;;;;;;;2.60;1.30;;;;;;;22.94;75.30;96169.59;2084566;28;20241;-66
2023/07/29 10:50:48;;;;;;;2.00;1.20;;;;;;;23.03;75.61;96181.09;2084701;28;20251;-66
2023/07/29 10:51:50;;;;;;;7.32;1.38;;;;;;;23.01;75.11;96180.44;2083468;28;20671;-66
2023/07/29 10:52:56;;;;;;;3.13;1.20;;;;;;;23.07;75.39;96186.97;2083023;28;20869;-66
2023/07/29 10:54:00;;;;;;;3.70;1.30;;;;;;;22.96;74.94;96188.06;2085546;28;20367;-66
2023/07/29 10:55:03;;;;;;;3.03;1.42;;;;;;;22.54;74.80;96194.94;2083502;28;20193;-66
2023/07/29 10:56:05;;;;;;;3.17;1.38;;;;;;;22.44;75.59;96192.34;2083366;28;20316;-66
2023/07/29 10:57:06;;;;;;;2.17;1.15;;;;;;;22.50;76.98;96191.75;2082869;28;20185;-66
2023/07/29 10:58:17;;;;;;;2.72;1.40;;;;;;;22.30;77.69;96188.38;2086418;28;20200;-65
2023/07/29 10:59:19;;;;;;;3.25;1.30;;;;;;;22.40;77.69;96192.81;2084394;28;20225;-66
2023/07/29 11:00:21;;;;;;;1.60;0.93;;;;;;;22.63;77.00;96188.69;2083116;28;20775;-66
2023/07/29 11:01:32;;;;;;;2.05;1.10;;;;;;;22.86;75.94;96182.03;2084555;28;20205;-66
2023/07/29 11:02:38;;;;;;;2.40;1.02;;;;;;;22.84;75.45;96182.16;2083469;28;20207;-66
2023/07/29 11:03:39;;;;;;;2.00;1.20;;;;;;;22.99;74.89;96185.09;2082652;28;20197;-66
2023/07/29 11:04:50;;;;;;;1.75;1.00;;;;;;;22.94;75.54;96180.25;2082930;28;20200;-66
2023/07/29 11:05:53;;;;;;;2.00;1.20;;;;;;;22.93;75.53;96183.91;2081176;28;20227;-66
2023/07/29 11:07:07;;;;;;;3.53;1.00;;;;;;;22.94;74.10;96188.25;2084089;28;20239;-66
2023/07/29 11:08:28;;;;;;;2.38;1.40;;;;;;;22.66;72.11;96183.06;2083458;28;20624;-66
2023/07/29 11:09:47;;;;;;;2.88;1.13;;;;;;;23.22;73.10;96195.22;2083286;28;20274;-66
2023/07/29 11:11:03;;;;;;;2.50;0.80;;;;;;;23.25;74.63;96192.25;2086625;28;20196;-66
2023/07/29 11:12:45;;;;;;;2.17;1.02;;;;;;;22.93;74.43;96186.56;2083019;28;20299;-66
2023/07/29 11:13:47;;;;;;;3.45;1.20;;;;;;;22.87;75.86;96184.53;2082161;28;20750;-66
2023/07/29 11:14:48;;;;;;;1.95;0.90;;;;;;;23.06;74.90;96180.81;2080378;28;20197;-66
2023/07/29 11:15:50;;;;;;;2.08;0.82;;;;;;;23.33;73.77;96178.16;2081633;28;20250;-66
2023/07/29 11:16:53;;;;;;;2.88;1.00;;;;;;;22.99;73.32;96172.63;2083668;28;20205;-66
2023/07/29 11:17:57;;;;;;;2.25;1.02;;;;;;;22.76;74.55;96166.97;2083534;28;20216;-65
2023/07/29 11:19:00;;;;;;;6.07;1.48;;;;;;;23.36;73.58;96172.50;2083044;28;20220;-66
2023/07/29 11:20:03;;;;;;;2.25;1.05;;;;;;;23.54;73.87;96172.38;2083106;28;20209;-66
2023/07/29 11:21:04;;;;;;;4.45;1.20;;;;;;;23.55;72.43;96169.56;2080567;28;20246;-66
2023/07/29 11:22:06;;;;;;;2.80;1.08;;;;;;;23.51;71.62;96162.88;2080857;28;20225;-66
2023/07/29 11:23:07;;;;;;;2.35;1.00;;;;;;;23.70;71.99;96161.78;2083231;28;20204;-66
2023/07/29 11:24:09;;;;;;;1.70;0.93;;;;;;;24.11;70.84;96167.25;2083424;28;20269;-66
2023/07/29 11:25:13;;;;;;;1.92;1.10;;;;;;;24.28;69.50;96156.59;2084578;28;20208;-66
2023/07/29 11:26:15;;;;;;;4.68;1.48;;;;;;;24.10;69.67;96170.91;2083328;28;20757;-66
2023/07/29 11:27:16;;;;;;;2.80;0.95;;;;;;;23.77;70.29;96160.16;2080954;28;20197;-66
2023/07/29 11:28:18;;;;;;;3.08;1.02;;;;;;;23.50;69.61;96157.72;2083856;28;20208;-66
2023/07/29 11:29:19;;;;;;;1.70;1.00;;;;;;;23.59;70.81;96154.94;2083916;28;20281;-66
2023/07/29 11:30:22;;;;;;;1.98;0.98;;;;;;;23.63;70.97;96163.44;2083885;28;20204;-66
2023/07/29 11:31:38;;;;;;;5.05;1.10;;;;;;;24.07;70.71;96171.22;2080346;28;20201;-66
2023/07/29 11:32:41;;;;;;;4.00;1.30;;;;;;;24.22;68.91;96176.75;2081982;28;20204;-66
2023/07/29 11:33:42;;;;;;;3.45;1.23;;;;;;;24.28;68.78;96168.06;2081950;28;20197;-66
2023/07/29 11:34:44;;;;;;;2.70;1.08;;;;;;;24.31;67.07;96176.75;2083453;28;20238;-66
2023/07/29 11:35:46;;;;;;;2.72;1.35;;;;;;;24.31;67.71;96172.25;2080291;28;20331;-66
2023/07/29 11:36:47;;;;;;;2.13;1.20;;;;;;;24.34;67.12;96176.41;2083413;28;20284;-66
2023/07/29 11:37:50;;;;;;;10.30;1.30;;;;;;;24.00;67.69;96174.69;2082984;28;20250;-66
2023/07/29 11:38:52;;;;;;;2.25;1.00;;;;;;;23.78;68.11;96176.97;2083484;28;20221;-66
2023/07/29 11:39:53;;;;;;;2.42;1.17;;;;;;;23.73;69.29;96168.63;2080016;28;20198;-66
2023/07/29 11:41:00;;;;;;;2.38;1.00;;;;;;;23.86;70.02;96170.81;2080601;28;20273;-66
2023/07/29 11:42:02;;;;;;;2.30;1.27;;;;;;;23.85;68.73;96171.84;2084232;28;20204;-66
2023/07/29 11:43:04;;;;;;;1.55;0.90;;;;;;;23.94;69.26;96169.03;2080181;28;20667;-66
2023/07/29 11:44:09;;;;;;;3.15;1.35;;;;;;;24.04;68.22;96162.75;2080124;28;20229;-66
2023/07/29 11:45:12;;;;;;;1.77;1.10;;;;;;;23.99;68.89;96168.56;2083624;28;20238;-66
2023/07/29 11:46:21;;;;;;;3.15;1.10;;;;;;;24.23;69.12;96170.41;2083491;28;20196;-66
2023/07/29 11:47:23;;;;;;;3.47;1.40;;;;;;;24.27;67.73;96150.41;2074762;28;20248;-66
2023/07/29 11:48:31;;;;;;;2.78;1.20;;;;;;;24.00;67.22;96172.03;2078249;28;20201;-66
2023/07/29 11:49:34;;;;;;;2.65;1.35;;;;;;;24.15;67.26;96167.75;2080110;28;20248;-66
2023/07/29 11:50:35;;;;;;;1.80;1.08;;;;;;;24.21;68.01;96167.06;2082617;28;20199;-66
2023/07/29 11:51:37;;;;;;;3.47;1.77;;;;;;;24.32;67.46;96165.09;2081637;28;20208;-66
2023/07/29 11:52:41;;;;;;;4.15;1.17;;;;;;;24.30;67.54;96175.91;2083994;28;20243;-66
2023/07/29 11:53:43;;;;;;;2.50;1.20;;;;;;;24.27;65.80;96173.59;2082997;28;20288;-66
2023/07/29 11:54:46;;;;;;;2.38;1.40;;;;;;;24.44;65.72;96169.06;2083537;28;20201;-66
2023/07/29 11:55:52;;;;;;;4.35;1.70;;;;;;;24.21;67.11;96164.41;2082176;28;20197;-66
2023/07/29 11:56:55;;;;;;;2.30;1.60;;;;;;;23.98;67.05;96166.06;2082088;28;20197;-66
2023/07/29 11:57:57;;;;;;;2.33;1.20;;;;;;;23.52;64.26;96167.22;2082378;28;20203;-66
2023/07/29 11:58:59;;;;;;;2.10;1.20;;;;;;;23.37;64.34;96167.00;2084228;28;20221;-66
2023/07/29 12:00:03;;;;;;;2.10;1.30;;;;;;;23.34;63.99;96167.34;2082938;28;20188;-66
2023/07/29 12:01:05;;;;;;;3.60;1.35;;;;;;;23.22;64.79;96171.25;2082860;28;20732;-66
2023/07/29 12:02:15;;;;;;;2.97;1.50;;;;;;;22.96;65.18;96170.25;2082498;28;20613;-66
2023/07/29 12:03:17;;;;;;;2.70;1.25;;;;;;;22.89;65.27;96163.91;2083963;28;20208;-65
2023/07/29 12:04:20;;;;;;;4.45;1.60;;;;;;;22.90;65.61;96162.09;2084202;28;20227;-65
2023/07/29 12:05:23;;;;;;;4.20;1.63;;;;;;;23.05;65.60;96157.84;2084334;28;20659;-66
2023/07/29 12:06:24;;;;;;;4.18;1.33;;;;;;;23.46;64.94;96167.88;2084245;28;20663;-65
2023/07/29 12:07:26;;;;;;;2.95;1.60;;;;;;;23.66;63.72;96163.13;2082362;28;20197;-65
2023/07/29 12:08:28;;;;;;;3.03;1.95;;;;;;;23.51;63.60;96154.06;2082018;28;20594;-65
2023/07/29 12:09:30;;;;;;;4.00;1.60;;;;;;;23.83;62.61;96163.97;2083438;28;20192;-65
2023/07/29 12:10:32;;;;;;;2.20;1.30;;;;;;;24.25;62.82;96171.09;2082628;28;20802;-65
2023/07/29 12:11:34;;;;;;;2.33;1.33;;;;;;;24.19;62.06;96165.56;2082185;28;20396;-66
2023/07/29 12:12:49;;;;;;;3.40;1.42;;;;;;;24.02;62.29;96154.88;2081937;28;20205;-65
2023/07/29 12:13:53;;;;;;;7.10;1.70;;;;;;;23.77;63.32;96162.81;2082701;28;20303;-66
2023/07/29 12:14:55;;;;;;;2.25;1.38;;;;;;;23.57;62.73;96170.25;2085326;28;20200;-65
2023/07/29 12:16:03;;;;;;;2.92;1.30;;;;;;;23.12;62.85;96169.53;2080821;28;20200;-65
2023/07/29 12:17:06;;;;;;;3.00;1.33;;;;;;;23.17;64.10;96163.75;2085881;28;20245;-65
2023/07/29 12:18:07;;;;;;;2.47;1.30;;;;;;;23.35;63.45;96168.16;2087462;28;20196;-65
2023/07/29 12:19:13;;;;;;;3.38;1.38;;;;;;;23.40;62.55;96160.50;2090385;28;20224;-65
2023/07/29 12:20:15;;;;;;;2.15;1.33;;;;;;;23.58;63.32;96163.06;2083163;28;20200;-66
2023/07/29 12:21:19;;;;;;;3.50;1.45;;;;;;;23.40;61.83;96157.84;2083685;28;20443;-66
2023/07/29 12:22:21;;;;;;;3.50;1.45;;;;;;;23.19;61.57;96168.94;2084170;28;20696;-65
2023/07/29 12:23:26;;;;;;;3.15;1.50;;;;;;;23.52;61.55;96163.75;2082330;28;20242;-65
2023/07/29 12:24:29;;;;;;;3.40;1.30;;;;;;;23.69;61.31;96168.09;2081684;28;20659;-65
2023/07/29 12:25:31;;;;;;;2.40;1.38;;;;;;;23.41;61.95;96167.53;2087557;28;20192;-65
2023/07/29 12:26:33;;;;;;;2.67;1.55;;;;;;;23.38;63.18;96168.69;2083616;28;20193;-65
2023/07/29 12:27:34;;;;;;;2.60;1.50;;;;;;;23.23;63.42;96155.13;2083289;28;20242;-65
2023/07/29 12:28:36;;;;;;;2.35;1.38;;;;;;;23.34;62.98;96162.00;2082040;28;20292;-66
2023/07/29 12:29:41;;;;;;;3.42;1.30;;;;;;;23.33;62.69;96163.00;2080196;28;20231;-65
2023/07/29 12:30:43;;;;;;;2.15;1.40;;;;;;;23.54;62.85;96159.06;2081864;28;20683;-65
2023/07/29 12:31:46;;;;;;;3.00;1.70;;;;;;;23.88;62.52;96150.16;2083550;28;20199;-65
2023/07/29 12:32:48;;;;;;;3.75;1.35;;;;;;;24.16;61.97;96153.38;2083485;28;20236;-65
2023/07/29 12:33:56;;;;;;;9.65;2.13;;;;;;;24.29;61.64;96153.75;2083768;28;20673;-65
2023/07/29 12:34:57;;;;;;;2.60;1.27;;;;;;;24.17;61.29;96157.72;2083305;28;20229;-66
2023/07/29 12:35:59;;;;;;;3.15;1.55;;;;;;;24.36;61.26;96145.06;2084302;28;20283;-65
2023/07/29 12:37:02;;;;;;;4.65;1.90;;;;;;;24.21;60.64;96152.91;2082489;28;20193;-66
2023/07/29 12:38:04;;;;;;;2.60;1.40;;;;;;;24.16;61.74;96156.06;2082647;28;20390;-66
2023/07/29 12:39:05;;;;;;;3.83;1.30;;;;;;;24.08;61.44;96167.56;2084165;28;20229;-66
2023/07/29 12:40:07;;;;;;;2.75;1.65;;;;;;;24.19;61.53;96169.06;2084077;28;20652;-66
2023/07/29 12:41:09;;;;;;;2.15;1.50;;;;;;;24.31;59.91;96166.91;2079919;28;20213;-66
2023/07/29 12:42:10;;;;;;;2.22;1.30;;;;;;;24.44;59.63;96158.41;2080327;28;20861;-66